createdAt,value
2022-08-22T00:01:16.058Z,2.70
2022-08-22T00:02:46.133Z,2.03
2022-08-22T00:04:50.365Z,3.33
2022-08-22T00:08:23.366Z,3.87
2022-08-22T00:11:52.838Z,3.50
2022-08-22T00:15:07.169Z,3.17
2022-08-22T00:18:26.250Z,3.97
2022-08-22T00:21:41.686Z,3.42
2022-08-22T00:25:24.535Z,2.92
2022-08-22T00:28:38.252Z,3.78
2022-08-22T00:31:50.211Z,2.70
2022-08-22T00:35:05.737Z,3.62
2022-08-22T00:38:17.108Z,2.22
2022-08-22T00:41:40.078Z,2.78
2022-08-22T00:44:58.105Z,3.87
2022-08-22T00:48:22.009Z,1.70
2022-08-22T00:51:27.602Z,2.10
2022-08-22T00:54:52.550Z,3.95
2022-08-22T00:58:15.453Z,1.75
2022-08-22T01:01:26.416Z,2.95
2022-08-22T01:04:49.982Z,1.40
2022-08-22T01:08:23.472Z,1.58
2022-08-22T01:11:58.381Z,1.70
2022-08-22T01:15:08.448Z,2.58
2022-08-22T01:18:43.050Z,1.60
2022-08-22T01:22:04.871Z,3.85
2022-08-22T01:25:22.584Z,2.55
2022-08-22T01:29:05.898Z,2.33
2022-08-22T01:32:39.687Z,1.80
2022-08-22T01:36:17.035Z,5.72
2022-08-22T01:39:47.095Z,1.58
2022-08-22T01:42:55.618Z,1.87
2022-08-22T01:46:09.531Z,4.85
2022-08-22T01:49:36.598Z,4.15
2022-08-22T01:52:52.686Z,2.83
2022-08-22T01:56:18.290Z,2.55
2022-08-22T01:59:33.988Z,1.65
2022-08-22T02:02:54.338Z,2.85
2022-08-22T02:06:14.440Z,2.17
2022-08-22T02:12:35.817Z,2.12
2022-08-22T02:15:41.258Z,3.28
2022-08-22T02:19:04.381Z,3.87
2022-08-22T02:22:31.006Z,1.37
2022-08-22T02:25:49.011Z,2.90
2022-08-22T02:29:04.798Z,1.90
2022-08-22T02:32:30.715Z,3.35
2022-08-22T02:35:54.547Z,2.40
2022-08-22T02:39:34.613Z,1.98
2022-08-22T02:42:41.127Z,2.97
2022-08-22T02:46:05.572Z,2.65
2022-08-22T02:49:27.437Z,2.83
2022-08-22T02:52:53.312Z,5.32
2022-08-22T02:56:18.659Z,4.95
2022-08-22T02:59:27.320Z,3.90
2022-08-22T03:02:37.223Z,4.57
2022-08-22T03:05:45.901Z,4.82
2022-08-22T03:09:14.212Z,2.85
2022-08-22T03:12:32.211Z,3.22
2022-08-22T03:15:36.873Z,3.58
2022-08-22T03:19:13.219Z,2.78
2022-08-22T03:22:30.099Z,5.90
2022-08-22T03:26:00.541Z,4.60
2022-08-22T03:29:10.036Z,4.95
2022-08-22T03:32:14.592Z,3.65
2022-08-22T03:35:25.498Z,4.07
2022-08-22T03:38:34.753Z,3.58
2022-08-22T03:41:55.717Z,5.62
2022-08-22T03:45:21.613Z,3.47
2022-08-22T03:48:45.381Z,5.95
2022-08-22T03:52:08.041Z,4.55
2022-08-22T03:55:39.885Z,4.43
2022-08-22T03:59:10.157Z,5.35
2022-08-22T04:02:50.026Z,6.80
2022-08-22T04:09:19.604Z,4.82
2022-08-22T04:13:01.409Z,5.55
2022-08-22T04:16:28.808Z,5.62
2022-08-22T04:20:00.631Z,4.00
2022-08-22T04:23:09.760Z,5.78
2022-08-22T04:26:24.152Z,4.45
2022-08-22T04:29:39.427Z,4.30
2022-08-22T04:32:49.176Z,4.45
2022-08-22T04:36:18.522Z,5.07
2022-08-22T04:39:34.776Z,4.47
2022-08-22T04:42:52.320Z,5.37
2022-08-22T04:46:03.378Z,4.53
2022-08-22T04:49:14.393Z,3.62
2022-08-22T04:52:35.414Z,4.95
2022-08-22T04:56:07.134Z,4.72
2022-08-22T04:59:17.865Z,3.30
2022-08-22T05:02:23.969Z,6.03
2022-08-22T05:05:36.260Z,5.40
2022-08-22T05:08:40.823Z,4.65
2022-08-22T05:11:49.430Z,6.07
2022-08-22T05:14:57.499Z,4.22
2022-08-22T05:18:10.022Z,9.35
2022-08-22T05:21:18.186Z,8.57
2022-08-22T05:24:28.802Z,5.43
2022-08-22T05:27:35.757Z,4.10
2022-08-22T05:30:39.999Z,6.37
2022-08-22T05:33:47.298Z,5.80
2022-08-22T05:37:20.463Z,4.12
2022-08-22T05:40:26.981Z,5.22
2022-08-22T05:43:32.416Z,4.28
2022-08-22T05:46:45.523Z,5.68
2022-08-22T05:50:04.998Z,8.65
2022-08-22T05:53:13.118Z,7.72
2022-08-22T05:56:38.781Z,7.28
2022-08-22T05:59:47.840Z,5.90
2022-08-22T06:03:03.485Z,4.30
2022-08-22T06:06:17.130Z,6.72
2022-08-22T06:10:08.750Z,4.97
2022-08-22T06:13:25.943Z,5.07
2022-08-22T06:16:50.245Z,7.78
2022-08-22T06:19:54.435Z,5.60
2022-08-22T06:23:00.597Z,5.62
2022-08-22T06:26:05.499Z,4.45
2022-08-22T06:29:09.407Z,9.52
2022-08-22T06:32:16.722Z,5.45
2022-08-22T06:36:00.707Z,7.95
2022-08-22T06:39:35.443Z,7.30
2022-08-22T06:42:42.937Z,5.47
2022-08-22T06:45:47.050Z,6.55
2022-08-22T06:48:50.587Z,5.62
2022-08-22T06:52:00.195Z,6.10
2022-08-22T06:55:06.831Z,7.53
2022-08-22T06:58:20.939Z,5.40
2022-08-22T07:01:30.889Z,9.15
2022-08-22T07:04:33.886Z,8.13
2022-08-22T07:07:37.442Z,7.00
2022-08-22T07:11:11.763Z,6.70
2022-08-22T07:14:17.174Z,8.13
2022-08-22T07:17:32.814Z,7.60
2022-08-22T07:20:45.706Z,6.60
2022-08-22T07:23:49.590Z,6.45
2022-08-22T07:27:11.750Z,6.62
2022-08-22T07:33:39.207Z,6.20
2022-08-22T07:37:01.586Z,6.37
2022-08-22T07:40:16.952Z,7.25
2022-08-22T07:43:29.278Z,9.18
2022-08-22T07:47:00.689Z,7.30
2022-08-22T07:50:07.248Z,7.00
2022-08-22T07:53:30.298Z,9.05
2022-08-22T07:56:42.433Z,8.65
2022-08-22T07:59:52.688Z,11.10
2022-08-22T08:03:06.474Z,7.85
2022-08-22T08:06:10.025Z,10.05
2022-08-22T08:09:17.403Z,7.07
2022-08-22T08:13:02.194Z,7.78
2022-08-22T08:16:09.107Z,8.95
2022-08-22T08:19:15.018Z,6.87
2022-08-22T08:22:22.742Z,7.45
2022-08-22T08:25:32.468Z,6.65
2022-08-22T08:28:44.591Z,9.40
2022-08-22T08:31:49.680Z,10.70
2022-08-22T08:34:52.500Z,9.63
2022-08-22T08:38:18.364Z,9.98
2022-08-22T08:41:56.739Z,11.55
2022-08-22T08:45:29.009Z,7.07
2022-08-22T08:49:12.701Z,8.95
2022-08-22T08:52:33.906Z,8.90
2022-08-22T08:56:05.913Z,7.43
2022-08-22T08:59:35.393Z,14.75
2022-08-22T09:03:15.630Z,8.50
2022-08-22T09:06:34.852Z,12.02
2022-08-22T09:10:16.634Z,9.85
2022-08-22T09:13:40.862Z,8.30
2022-08-22T09:16:48.154Z,11.98
2022-08-22T09:20:35.093Z,9.35
2022-08-22T09:24:09.812Z,12.95
2022-08-22T09:27:37.126Z,7.00
2022-08-22T09:31:02.611Z,10.52
2022-08-22T09:34:33.966Z,12.13
2022-08-22T09:37:58.279Z,8.75
2022-08-22T09:41:11.099Z,9.05
2022-08-22T09:44:21.001Z,6.32
2022-08-22T09:47:39.329Z,6.57
2022-08-22T09:51:13.498Z,7.15
2022-08-22T09:54:49.769Z,7.90
2022-08-22T09:58:05.708Z,8.15
2022-08-22T10:01:33.008Z,9.57
2022-08-22T10:04:56.731Z,8.32
2022-08-22T10:08:11.480Z,13.52
2022-08-22T10:11:30.192Z,7.32
2022-08-22T10:14:50.611Z,7.00
2022-08-22T10:18:35.656Z,6.62
2022-08-22T10:22:07.589Z,8.25
2022-08-22T10:25:35.336Z,8.63
2022-08-22T10:28:49.003Z,7.55
2022-08-22T10:32:07.732Z,5.30
2022-08-22T10:35:43.428Z,6.85
2022-08-22T10:38:52.312Z,6.37
2022-08-22T10:42:09.785Z,5.28
2022-08-22T10:45:35.734Z,6.35
2022-08-22T10:48:46.228Z,10.02
2022-08-22T10:51:58.368Z,5.40
2022-08-22T10:55:13.292Z,5.20
2022-08-22T10:58:26.000Z,6.30
2022-08-22T11:01:37.502Z,7.07
2022-08-22T11:05:00.031Z,8.20
2022-08-22T11:08:19.382Z,7.50
2022-08-22T11:11:43.798Z,5.93
2022-08-22T11:15:15.349Z,6.78
2022-08-22T11:19:14.766Z,6.85
2022-08-22T11:22:31.133Z,6.32
2022-08-22T11:25:43.580Z,7.62
2022-08-22T11:29:14.417Z,7.65
2022-08-22T11:32:30.773Z,6.22
2022-08-22T11:35:39.649Z,7.40
2022-08-22T11:39:09.934Z,8.15
2022-08-22T11:42:33.876Z,6.65
2022-08-22T11:45:48.801Z,6.40
2022-08-22T11:49:16.937Z,9.25
2022-08-22T11:52:52.490Z,7.05
2022-08-22T11:56:01.232Z,6.87
2022-08-22T11:59:23.698Z,7.25
2022-08-22T12:02:49.136Z,10.38
2022-08-22T12:06:05.970Z,9.57
2022-08-22T12:09:30.145Z,6.87
2022-08-22T12:12:52.307Z,8.13
2022-08-22T12:16:45.024Z,7.00
2022-08-22T12:20:18.720Z,12.18
2022-08-22T12:23:49.429Z,6.70
2022-08-22T12:27:11.212Z,8.90
2022-08-22T12:30:36.294Z,9.52
2022-08-22T12:33:54.416Z,8.35
2022-08-22T12:37:15.681Z,8.70
2022-08-22T12:40:54.735Z,8.80
2022-08-22T12:44:36.849Z,5.40
2022-08-22T12:47:56.049Z,7.47
2022-08-22T12:51:25.290Z,6.65
2022-08-22T12:54:28.150Z,6.55
2022-08-22T12:57:41.879Z,8.55
2022-08-22T13:00:48.352Z,6.68
2022-08-22T13:03:57.118Z,5.57
2022-08-22T13:10:31.142Z,6.28
2022-08-22T13:13:44.968Z,5.43
2022-08-22T13:17:23.913Z,6.95
2022-08-22T13:20:31.538Z,8.52
2022-08-22T13:23:47.122Z,8.55
2022-08-22T13:27:00.015Z,9.52
2022-08-22T13:30:25.082Z,10.63
2022-08-22T13:33:34.719Z,11.57
2022-08-22T13:36:51.962Z,10.82
2022-08-22T13:40:01.819Z,14.60
2022-08-22T13:43:12.798Z,14.57
2022-08-22T13:46:25.860Z,17.92
2022-08-22T13:49:41.227Z,20.48
2022-08-22T13:52:55.230Z,17.12
2022-08-22T13:56:24.958Z,13.57
2022-08-22T13:59:50.331Z,14.05
2022-08-22T14:03:18.364Z,15.20
2022-08-22T14:06:38.087Z,12.55
2022-08-22T14:10:14.950Z,15.82
2022-08-22T14:13:32.861Z,16.55
2022-08-22T14:16:47.256Z,13.25
2022-08-22T14:20:11.584Z,12.13
2022-08-22T14:23:26.884Z,13.85
2022-08-22T14:26:37.338Z,13.62
2022-08-22T14:29:58.430Z,12.68
2022-08-22T14:33:39.954Z,13.20
2022-08-22T14:36:57.784Z,13.85
2022-08-22T14:40:12.086Z,11.15
2022-08-22T14:43:35.379Z,7.20
2022-08-22T14:46:57.837Z,5.15
2022-08-22T14:50:09.580Z,5.43
2022-08-22T14:53:35.173Z,4.18
2022-08-22T14:56:38.346Z,7.28
2022-08-22T14:59:44.118Z,3.60
2022-08-22T15:02:46.798Z,3.22
2022-08-22T15:05:51.659Z,2.05
2022-08-22T15:08:55.199Z,3.12
2022-08-22T15:11:59.340Z,4.40
2022-08-22T15:15:12.786Z,1.80
2022-08-22T15:18:36.637Z,4.28
2022-08-22T15:21:41.297Z,3.05
2022-08-22T15:25:01.779Z,3.67
2022-08-22T15:31:24.318Z,2.37
2022-08-22T15:34:39.274Z,5.20
2022-08-22T15:38:30.361Z,4.45
2022-08-22T15:41:36.671Z,3.10
2022-08-22T15:44:44.362Z,3.20
2022-08-22T15:47:52.386Z,7.15
2022-08-22T15:51:00.233Z,2.70
2022-08-22T15:54:16.363Z,2.28
2022-08-22T15:57:35.311Z,4.62
2022-08-22T16:01:02.918Z,4.10
2022-08-22T16:04:13.596Z,3.72
2022-08-22T16:07:34.151Z,2.42
2022-08-22T16:10:42.535Z,4.10
2022-08-22T16:13:46.414Z,2.10
2022-08-22T16:17:18.328Z,2.17
2022-08-22T16:20:20.785Z,4.10
2022-08-22T16:23:23.871Z,2.78
2022-08-22T16:26:29.365Z,2.90
2022-08-22T16:29:41.545Z,2.05
2022-08-22T16:32:52.850Z,2.42
2022-08-22T16:36:15.551Z,3.80
2022-08-22T16:39:21.256Z,2.65
2022-08-22T16:42:36.858Z,2.85
2022-08-22T16:45:42.058Z,6.28
2022-08-22T16:48:45.549Z,3.35
2022-08-22T16:52:20.382Z,1.25
2022-08-22T16:55:29.333Z,4.97
2022-08-22T16:58:59.167Z,1.80
2022-08-22T17:02:49.538Z,2.45
2022-08-22T17:06:13.967Z,3.90
2022-08-22T17:09:32.261Z,3.12
2022-08-22T17:12:49.574Z,2.25
2022-08-22T17:16:21.296Z,4.05
2022-08-22T17:19:44.429Z,2.97
2022-08-22T17:23:02.509Z,2.70
2022-08-22T17:26:38.361Z,2.90
2022-08-22T17:29:52.033Z,6.55
2022-08-22T17:33:06.546Z,5.22
2022-08-22T17:36:26.796Z,2.92
2022-08-22T17:39:55.810Z,3.35
2022-08-22T17:43:07.967Z,3.20
2022-08-22T17:46:25.623Z,2.85
2022-08-22T17:49:46.569Z,5.82
2022-08-22T17:52:56.545Z,3.83
2022-08-22T17:56:22.365Z,3.20
2022-08-22T17:59:37.941Z,3.50
2022-08-22T18:02:43.367Z,4.37
2022-08-22T18:05:49.173Z,5.20
2022-08-22T18:09:16.275Z,3.72
2022-08-22T18:12:47.125Z,3.45
2022-08-22T18:16:01.380Z,2.60
2022-08-22T18:19:21.349Z,4.95
2022-08-22T18:22:31.837Z,2.47
2022-08-22T18:25:42.366Z,4.45
2022-08-22T18:28:59.410Z,2.45
2022-08-22T18:32:23.984Z,3.95
2022-08-22T18:35:38.977Z,1.30
2022-08-22T18:38:52.452Z,5.25
2022-08-22T18:42:18.293Z,3.70
2022-08-22T18:45:46.075Z,2.67
2022-08-22T18:49:12.085Z,1.70
2022-08-22T18:52:26.735Z,1.95
2022-08-22T18:55:49.249Z,2.05
2022-08-22T18:59:05.942Z,2.03
2022-08-22T19:02:42.549Z,2.33
2022-08-22T19:06:01.292Z,2.40
2022-08-22T19:09:22.115Z,3.00
2022-08-22T19:13:09.674Z,1.45
2022-08-22T19:16:27.074Z,2.47
2022-08-22T19:20:21.758Z,1.90
2022-08-22T19:23:40.605Z,2.40
2022-08-22T19:26:47.671Z,2.78
2022-08-22T19:29:50.042Z,1.30
2022-08-22T19:32:59.433Z,1.50
2022-08-22T19:36:29.295Z,1.30
2022-08-22T19:39:41.663Z,1.00
2022-08-22T19:42:49.828Z,1.90
2022-08-22T19:45:53.875Z,1.83
2022-08-22T19:48:56.557Z,0.80
2022-08-22T19:52:23.991Z,1.10
2022-08-22T19:55:38.629Z,1.23
2022-08-22T19:59:09.077Z,1.23
2022-08-22T20:02:18.281Z,1.98
2022-08-22T20:05:34.390Z,1.52
2022-08-22T20:08:56.605Z,2.10
2022-08-22T20:12:20.220Z,1.35
2022-08-22T20:15:26.301Z,1.10
2022-08-22T20:18:53.515Z,2.08
2022-08-22T20:22:05.555Z,1.95
2022-08-22T20:25:42.712Z,3.85
2022-08-22T20:28:52.299Z,1.65
2022-08-22T20:31:58.765Z,1.48
2022-08-22T20:35:03.544Z,3.72
2022-08-22T20:38:11.269Z,1.58
2022-08-22T20:41:28.181Z,1.20
2022-08-22T20:44:41.638Z,1.80
2022-08-22T20:47:50.434Z,3.25
2022-08-22T20:51:03.138Z,2.05
2022-08-22T20:54:23.993Z,1.65
2022-08-22T20:57:26.901Z,1.77
2022-08-22T21:00:48.046Z,1.35
2022-08-22T21:03:52.809Z,4.62
2022-08-22T21:07:01.018Z,1.48
2022-08-22T21:10:27.039Z,5.03
2022-08-22T21:13:35.019Z,3.03
2022-08-22T21:16:37.726Z,4.10
2022-08-22T21:19:40.296Z,2.97
2022-08-22T21:22:43.158Z,2.70
2022-08-22T21:25:54.177Z,2.78
2022-08-22T21:29:14.703Z,2.30
2022-08-22T21:32:22.517Z,3.70
2022-08-22T21:35:30.077Z,2.15
2022-08-22T21:38:32.798Z,3.90
2022-08-22T21:41:42.195Z,3.00
2022-08-22T21:45:00.340Z,3.77
2022-08-22T21:48:23.647Z,3.05
2022-08-22T21:51:58.717Z,3.83
2022-08-22T21:55:24.574Z,5.20
2022-08-22T21:58:35.848Z,4.43
2022-08-22T22:01:42.756Z,3.25
2022-08-22T22:04:48.664Z,3.90
2022-08-22T22:07:52.331Z,4.57
2022-08-22T22:10:59.461Z,3.67
2022-08-22T22:14:02.268Z,4.05
2022-08-22T22:17:05.046Z,4.53
2022-08-22T22:20:08.215Z,5.75
2022-08-22T22:23:11.143Z,5.20
2022-08-22T22:26:14.195Z,5.15
2022-08-22T22:29:17.010Z,6.07
2022-08-22T22:32:19.723Z,6.15
2022-08-22T22:35:22.481Z,6.32
2022-08-22T22:38:27.522Z,9.40
2022-08-22T22:41:30.324Z,10.52
2022-08-22T22:44:33.125Z,6.22
2022-08-22T22:47:36.071Z,7.45
2022-08-22T22:50:40.934Z,6.95
2022-08-22T22:53:44.904Z,7.32
2022-08-22T22:56:48.104Z,7.87
2022-08-22T22:59:51.745Z,7.47
2022-08-22T23:02:54.830Z,7.80
2022-08-22T23:05:57.681Z,8.65
2022-08-22T23:09:00.263Z,7.70
2022-08-22T23:12:03.835Z,8.40
2022-08-22T23:15:07.143Z,9.75
2022-08-22T23:18:09.890Z,11.20
2022-08-22T23:21:17.253Z,8.25
2022-08-22T23:24:20.471Z,10.80
2022-08-22T23:27:23.275Z,9.77
2022-08-22T23:30:26.092Z,9.48
2022-08-22T23:33:28.583Z,10.90
2022-08-22T23:36:31.555Z,9.05
2022-08-22T23:39:35.789Z,9.68
2022-08-22T23:42:39.079Z,9.73
2022-08-22T23:45:41.521Z,9.48
2022-08-22T23:48:44.866Z,11.23
2022-08-22T23:51:49.116Z,14.25
2022-08-22T23:54:54.293Z,12.32
2022-08-22T23:57:58.320Z,15.25
